createdAt,value
2022-08-07T00:00:42.344Z,13.18
2022-08-07T00:03:47.384Z,12.23
2022-08-07T00:06:51.808Z,10.45
2022-08-07T00:10:18.747Z,14.45
2022-08-07T00:13:23.881Z,10.93
2022-08-07T00:16:30.109Z,11.68
2022-08-07T00:20:01.568Z,10.15
2022-08-07T00:22:57.428Z,12.93
2022-08-07T00:26:18.573Z,10.65
2022-08-07T00:29:31.460Z,9.52
2022-08-07T00:32:35.566Z,11.52
2022-08-07T00:35:39.174Z,9.43
2022-08-07T00:38:42.782Z,9.90
2022-08-07T00:42:01.781Z,10.27
2022-08-07T00:45:16.078Z,11.25
2022-08-07T00:48:19.768Z,10.57
2022-08-07T00:51:57.071Z,9.82
2022-08-07T00:54:57.644Z,11.32
2022-08-07T00:58:03.920Z,12.40
2022-08-07T01:01:08.408Z,12.27
2022-08-07T01:04:11.788Z,9.98
2022-08-07T01:07:29.838Z,9.52
2022-08-07T01:10:34.981Z,14.40
2022-08-07T01:13:40.560Z,13.07
2022-08-07T01:17:00.266Z,10.05
2022-08-07T01:20:10.493Z,13.18
2022-08-07T01:23:34.666Z,11.98
2022-08-07T01:26:43.888Z,10.80
2022-08-07T01:29:56.508Z,10.40
2022-08-07T01:33:00.590Z,11.50
2022-08-07T01:36:09.943Z,9.55
2022-08-07T01:39:18.286Z,10.80
2022-08-07T01:42:39.847Z,10.35
2022-08-07T01:45:55.004Z,10.88
2022-08-07T01:49:02.819Z,18.45
2022-08-07T01:52:09.354Z,10.77
2022-08-07T01:55:22.251Z,13.23
2022-08-07T01:58:34.154Z,11.15
2022-08-07T02:01:59.781Z,11.40
2022-08-07T02:05:16.205Z,10.45
2022-08-07T02:08:42.416Z,12.48
2022-08-07T02:12:03.554Z,11.68
2022-08-07T02:15:15.092Z,13.38
2022-08-07T02:18:22.263Z,13.70
2022-08-07T02:21:55.831Z,11.50
2022-08-07T02:24:55.761Z,12.18
2022-08-07T02:28:03.552Z,11.27
2022-08-07T02:31:28.413Z,10.10
2022-08-07T02:34:35.893Z,9.60
2022-08-07T02:37:54.596Z,9.38
2022-08-07T02:40:59.640Z,9.88
2022-08-07T02:44:06.364Z,9.65
2022-08-07T02:47:19.225Z,11.48
2022-08-07T02:50:26.754Z,14.35
2022-08-07T02:53:38.711Z,11.90
2022-08-07T02:56:47.835Z,9.32
2022-08-07T03:00:00.856Z,9.20
2022-08-07T03:03:13.327Z,11.27
2022-08-07T03:06:26.300Z,10.73
2022-08-07T03:09:44.572Z,9.20
2022-08-07T03:12:50.236Z,9.70
2022-08-07T03:15:58.458Z,11.35
2022-08-07T03:19:06.333Z,10.90
2022-08-07T03:22:18.990Z,8.80
2022-08-07T03:25:25.785Z,12.75
2022-08-07T03:28:39.614Z,11.38
2022-08-07T03:31:50.046Z,9.85
2022-08-07T03:35:00.936Z,10.82
2022-08-07T03:38:31.123Z,12.50
2022-08-07T03:41:42.371Z,11.68
2022-08-07T03:44:53.645Z,10.38
2022-08-07T03:48:04.180Z,10.07
2022-08-07T03:51:15.371Z,9.40
2022-08-07T03:54:35.097Z,9.93
2022-08-07T03:58:34.194Z,11.45
2022-08-07T04:01:17.326Z,11.60
2022-08-07T04:04:25.402Z,9.75
2022-08-07T04:07:35.895Z,9.55
2022-08-07T04:10:54.289Z,9.50
2022-08-07T04:14:38.599Z,10.48
2022-08-07T04:18:31.335Z,8.80
2022-08-07T04:21:02.218Z,13.50
2022-08-07T04:24:10.481Z,11.32
2022-08-07T04:27:44.381Z,8.80
2022-08-07T04:30:57.362Z,13.55
2022-08-07T04:34:16.629Z,11.23
2022-08-07T04:37:24.279Z,9.10
2022-08-07T04:40:32.764Z,11.75
2022-08-07T04:44:11.784Z,10.32
2022-08-07T04:47:56.794Z,9.65
2022-08-07T04:50:40.707Z,9.93
2022-08-07T04:54:06.697Z,9.95
2022-08-07T04:58:12.325Z,9.85
2022-08-07T05:00:56.037Z,12.63
2022-08-07T05:04:17.811Z,11.00
2022-08-07T05:07:36.843Z,11.40
2022-08-07T05:10:48.702Z,10.57
2022-08-07T05:14:53.189Z,10.65
2022-08-07T05:18:00.928Z,10.00
2022-08-07T05:20:49.239Z,16.85
2022-08-07T05:23:59.345Z,14.07
2022-08-07T05:27:06.715Z,14.23
2022-08-07T05:30:32.654Z,14.10
2022-08-07T05:33:40.062Z,14.57
2022-08-07T05:36:56.919Z,12.70
2022-08-07T05:40:18.675Z,13.30
2022-08-07T05:43:49.883Z,13.32
2022-08-07T05:46:51.271Z,12.35
2022-08-07T05:49:59.961Z,12.07
2022-08-07T05:53:05.469Z,12.55
2022-08-07T05:56:30.393Z,13.15
2022-08-07T05:59:55.741Z,11.40
2022-08-07T06:03:07.025Z,12.43
2022-08-07T06:06:12.661Z,12.80
2022-08-07T06:10:04.000Z,11.50
2022-08-07T06:12:48.627Z,15.02
2022-08-07T06:15:56.858Z,11.75
2022-08-07T06:19:06.406Z,11.60
2022-08-07T06:22:22.553Z,14.13
2022-08-07T06:25:41.913Z,13.27
2022-08-07T06:29:01.163Z,13.48
2022-08-07T06:32:09.865Z,10.48
2022-08-07T06:35:17.985Z,11.48
2022-08-07T06:38:22.602Z,10.73
2022-08-07T06:42:02.409Z,8.95
2022-08-07T06:45:17.980Z,9.45
2022-08-07T06:48:29.668Z,10.25
2022-08-07T06:51:49.367Z,10.88
2022-08-07T06:55:32.878Z,11.57
2022-08-07T06:58:24.625Z,9.85
2022-08-07T07:01:43.847Z,9.93
2022-08-07T07:04:55.911Z,8.52
2022-08-07T07:08:06.465Z,8.65
2022-08-07T07:11:13.791Z,9.65
2022-08-07T07:14:40.598Z,7.95
2022-08-07T07:17:52.322Z,8.07
2022-08-07T07:21:03.947Z,8.48
2022-08-07T07:24:12.549Z,8.60
2022-08-07T07:27:18.504Z,8.23
2022-08-07T07:30:32.529Z,8.18
2022-08-07T07:33:44.795Z,8.07
2022-08-07T07:37:14.349Z,9.25
2022-08-07T07:40:26.292Z,9.93
2022-08-07T07:43:48.232Z,8.73
2022-08-07T07:47:14.267Z,10.95
2022-08-07T07:50:33.100Z,7.20
2022-08-07T07:53:51.745Z,9.73
2022-08-07T07:56:58.343Z,8.30
2022-08-07T08:00:09.183Z,8.13
2022-08-07T08:04:10.231Z,8.35
2022-08-07T08:06:51.145Z,7.65
2022-08-07T08:10:05.477Z,7.90
2022-08-07T08:13:15.214Z,8.38
2022-08-07T08:16:25.257Z,8.48
2022-08-07T08:20:18.573Z,8.30
2022-08-07T08:23:14.294Z,8.38
2022-08-07T08:26:38.219Z,8.85
2022-08-07T08:29:54.139Z,8.35
2022-08-07T08:33:03.020Z,8.10
2022-08-07T08:36:08.746Z,10.05
2022-08-07T08:39:13.068Z,10.93
2022-08-07T08:42:27.102Z,8.60
2022-08-07T08:45:42.074Z,8.45
2022-08-07T08:49:12.465Z,8.65
2022-08-07T08:52:23.467Z,11.02
2022-08-07T08:55:55.238Z,8.13
2022-08-07T08:59:13.584Z,7.95
2022-08-07T09:02:34.655Z,7.82
2022-08-07T09:05:47.973Z,7.40
2022-08-07T09:09:00.264Z,8.07
2022-08-07T09:12:31.361Z,6.22
2022-08-07T09:16:24.186Z,6.22
2022-08-07T09:19:53.079Z,7.57
2022-08-07T09:24:31.969Z,5.95
2022-08-07T09:26:34.797Z,7.35
2022-08-07T09:30:03.265Z,5.35
2022-08-07T09:33:40.934Z,6.43
2022-08-07T09:36:57.053Z,5.57
2022-08-07T09:40:07.057Z,6.90
2022-08-07T09:44:03.666Z,5.47
2022-08-07T09:47:49.518Z,7.82
2022-08-07T09:50:40.971Z,6.22
2022-08-07T09:53:59.279Z,5.30
2022-08-07T09:57:49.433Z,7.43
2022-08-07T10:01:14.991Z,7.13
2022-08-07T10:05:00.683Z,4.80
2022-08-07T10:08:39.043Z,5.50
2022-08-07T10:12:00.301Z,8.23
2022-08-07T10:15:23.497Z,4.93
2022-08-07T10:18:56.835Z,5.07
2022-08-07T10:22:24.929Z,4.45
2022-08-07T10:25:53.098Z,5.50
2022-08-07T10:29:09.641Z,5.95
2022-08-07T10:32:52.647Z,5.40
2022-08-07T10:40:08.883Z,4.10
2022-08-07T10:43:34.430Z,4.70
2022-08-07T10:46:48.057Z,3.83
2022-08-07T10:53:52.303Z,4.88
2022-08-07T10:57:11.343Z,4.78
2022-08-07T11:00:39.372Z,3.88
2022-08-07T11:03:55.193Z,4.40
2022-08-07T11:07:24.809Z,4.15
2022-08-07T11:10:40.764Z,4.40
2022-08-07T11:14:46.519Z,5.50
2022-08-07T11:17:42.599Z,4.72
2022-08-07T11:20:50.969Z,4.75
2022-08-07T11:23:59.593Z,5.03
2022-08-07T11:27:13.608Z,4.57
2022-08-07T11:30:39.135Z,4.22
2022-08-07T11:33:58.610Z,6.90
2022-08-07T11:37:24.451Z,4.80
2022-08-07T11:40:50.484Z,5.30
2022-08-07T11:44:12.175Z,4.65
2022-08-07T11:47:38.811Z,4.50
2022-08-07T11:51:10.618Z,4.07
2022-08-07T11:54:46.326Z,4.25
2022-08-07T11:58:13.240Z,4.07
2022-08-07T12:01:59.982Z,4.72
2022-08-07T12:05:28.951Z,6.15
2022-08-07T12:08:42.548Z,6.22
2022-08-07T12:12:10.013Z,8.50
2022-08-07T12:15:46.106Z,6.03
2022-08-07T12:18:47.520Z,7.43
2022-08-07T12:22:38.781Z,7.03
2022-08-07T12:26:03.022Z,8.60
2022-08-07T12:29:37.234Z,8.73
2022-08-07T12:32:49.223Z,9.90
2022-08-07T12:35:57.797Z,6.97
2022-08-07T12:39:09.435Z,11.98
2022-08-07T12:42:32.399Z,7.07
2022-08-07T12:45:52.305Z,12.52
2022-08-07T12:49:10.265Z,8.75
2022-08-07T12:52:46.329Z,6.50
2022-08-07T12:56:03.670Z,8.48
2022-08-07T12:59:20.644Z,7.45
2022-08-07T13:02:44.040Z,7.32
2022-08-07T13:06:22.044Z,7.57
2022-08-07T13:10:21.619Z,8.95
2022-08-07T13:13:47.150Z,7.10
2022-08-07T13:17:06.350Z,9.23
2022-08-07T13:20:17.154Z,8.25
2022-08-07T13:24:04.356Z,7.38
2022-08-07T13:27:05.755Z,10.95
2022-08-07T13:30:19.353Z,7.38
2022-08-07T13:34:30.354Z,10.88
2022-08-07T13:37:20.177Z,8.68
2022-08-07T13:40:42.173Z,7.93
2022-08-07T13:43:52.577Z,8.27
2022-08-07T13:47:00.465Z,9.32
2022-08-07T13:50:33.799Z,10.63
2022-08-07T13:53:49.978Z,10.73
2022-08-07T13:56:59.901Z,11.52
2022-08-07T14:00:06.505Z,9.35
2022-08-07T14:03:41.275Z,8.40
2022-08-07T14:06:46.232Z,11.80
2022-08-07T14:10:14.897Z,7.43
2022-08-07T14:13:33.161Z,11.48
2022-08-07T14:16:41.485Z,9.45
2022-08-07T14:20:40.178Z,14.75
2022-08-07T14:23:59.066Z,17.60
2022-08-07T14:26:52.375Z,14.70
2022-08-07T14:30:10.031Z,15.18
2022-08-07T14:33:17.708Z,11.55
2022-08-07T14:36:28.034Z,12.77
2022-08-07T14:40:17.170Z,9.00
2022-08-07T14:43:55.925Z,10.65
2022-08-07T14:46:33.251Z,8.00
2022-08-07T14:49:57.884Z,11.65
2022-08-07T14:56:32.092Z,6.95
2022-08-07T15:00:04.724Z,9.23
2022-08-07T15:03:18.641Z,8.63
2022-08-07T15:06:25.993Z,7.72
2022-08-07T15:09:57.475Z,8.10
2022-08-07T15:13:01.162Z,9.02
2022-08-07T15:16:14.639Z,6.68
2022-08-07T15:20:31.011Z,7.35
2022-08-07T15:22:53.823Z,8.02
2022-08-07T15:25:59.962Z,8.93
2022-08-07T15:30:04.602Z,7.53
2022-08-07T15:32:39.064Z,7.97
2022-08-07T15:39:12.391Z,9.80
2022-08-07T15:42:46.849Z,9.73
2022-08-07T15:46:00.070Z,6.68
2022-08-07T15:49:12.619Z,6.45
2022-08-07T15:52:38.195Z,8.20
2022-08-07T15:55:54.024Z,6.20
2022-08-07T15:59:16.608Z,7.60
2022-08-07T16:02:29.018Z,6.00
2022-08-07T16:05:36.121Z,7.70
2022-08-07T16:08:45.498Z,8.57
2022-08-07T16:12:13.437Z,8.35
2022-08-07T16:15:57.978Z,6.75
2022-08-07T16:19:42.949Z,6.38
2022-08-07T16:23:05.515Z,7.30
2022-08-07T16:26:30.595Z,5.93
2022-08-07T16:30:10.722Z,9.40
2022-08-07T16:34:02.861Z,10.77
2022-08-07T16:37:02.798Z,7.13
2022-08-07T16:41:12.961Z,8.02
2022-08-07T16:45:04.165Z,5.95
2022-08-07T16:48:34.457Z,7.00
2022-08-07T16:52:50.676Z,10.13
2022-08-07T16:55:47.397Z,6.85
2022-08-07T16:59:11.012Z,11.15
2022-08-07T17:02:52.287Z,7.18
2022-08-07T17:06:29.362Z,6.95
2022-08-07T17:10:06.764Z,6.95
2022-08-07T17:13:18.133Z,8.77
2022-08-07T17:16:27.157Z,7.70
2022-08-07T17:20:02.825Z,9.07
2022-08-07T17:23:11.584Z,10.52
2022-08-07T17:26:22.531Z,9.95
2022-08-07T17:30:16.122Z,7.75
2022-08-07T17:34:09.021Z,12.93
2022-08-07T17:36:57.753Z,9.70
2022-08-07T17:40:10.856Z,7.05
2022-08-07T17:43:19.022Z,9.32
2022-08-07T17:46:52.589Z,6.85
2022-08-07T17:50:00.767Z,11.05
2022-08-07T17:53:09.544Z,8.20
2022-08-07T17:56:35.902Z,8.52
2022-08-07T17:59:50.467Z,8.90
2022-08-07T18:02:57.915Z,8.77
2022-08-07T18:06:09.501Z,10.60
2022-08-07T18:10:04.458Z,9.75
2022-08-07T18:13:09.577Z,10.63
2022-08-07T18:16:32.792Z,9.13
2022-08-07T18:21:09.769Z,9.13
2022-08-07T18:23:42.536Z,15.30
2022-08-07T18:27:11.751Z,9.20
2022-08-07T18:30:32.456Z,11.48
2022-08-07T18:34:37.663Z,9.65
2022-08-07T18:38:57.384Z,13.13
2022-08-07T18:41:20.798Z,9.38
2022-08-07T18:44:45.936Z,8.35
2022-08-07T18:48:03.620Z,8.77
2022-08-07T18:52:38.656Z,8.85
2022-08-07T18:54:55.306Z,9.05
2022-08-07T18:58:32.117Z,10.18
2022-08-07T19:02:20.014Z,9.15
2022-08-07T19:05:15.853Z,16.75
2022-08-07T19:08:30.170Z,13.07
2022-08-07T19:12:08.999Z,13.18
2022-08-07T19:16:03.129Z,16.65
2022-08-07T19:18:55.659Z,17.48
2022-08-07T19:22:11.179Z,11.68
2022-08-07T19:26:22.644Z,11.73
2022-08-07T19:30:53.494Z,11.13
2022-08-07T19:32:18.641Z,13.07
2022-08-07T19:35:34.344Z,12.27
2022-08-07T19:38:52.690Z,10.77
2022-08-07T19:42:05.755Z,11.43
2022-08-07T19:46:07.627Z,12.38
2022-08-07T19:48:53.514Z,12.00
2022-08-07T19:52:00.560Z,8.88
2022-08-07T19:55:05.014Z,9.57
2022-08-07T19:58:18.358Z,8.55
2022-08-07T20:01:52.694Z,7.35
2022-08-07T20:04:56.336Z,9.10
2022-08-07T20:08:03.325Z,9.27
2022-08-07T20:11:10.878Z,8.48
2022-08-07T20:14:31.629Z,9.85
2022-08-07T20:17:38.776Z,11.43
2022-08-07T20:20:43.528Z,10.38
2022-08-07T20:23:54.070Z,9.88
2022-08-07T20:27:02.358Z,12.57
2022-08-07T20:30:11.180Z,9.85
2022-08-07T20:33:36.959Z,8.27
2022-08-07T20:36:44.042Z,7.47
2022-08-07T20:40:04.047Z,12.65
2022-08-07T20:43:19.349Z,10.85
2022-08-07T20:46:32.348Z,11.75
2022-08-07T20:50:00.497Z,10.80
2022-08-07T20:53:05.748Z,8.98
2022-08-07T20:56:11.106Z,12.65
2022-08-07T21:00:04.181Z,10.75
2022-08-07T21:02:59.885Z,11.30
2022-08-07T21:06:21.702Z,10.80
2022-08-07T21:09:52.057Z,16.85
2022-08-07T21:13:00.539Z,10.15
2022-08-07T21:16:06.277Z,11.75
2022-08-07T21:19:14.040Z,11.32
2022-08-07T21:22:19.412Z,10.43
2022-08-07T21:25:30.988Z,10.00
2022-08-07T21:28:51.280Z,10.90
2022-08-07T21:32:47.090Z,9.73
2022-08-07T21:36:06.484Z,8.50
2022-08-07T21:39:47.529Z,9.07
2022-08-07T21:42:46.449Z,8.00
2022-08-07T21:46:10.834Z,9.52
2022-08-07T21:49:28.184Z,8.90
2022-08-07T21:52:45.560Z,11.13
2022-08-07T21:55:57.514Z,7.88
2022-08-07T21:59:05.534Z,8.82
2022-08-07T22:02:20.400Z,8.85
2022-08-07T22:05:45.984Z,8.77
2022-08-07T22:08:57.076Z,7.97
2022-08-07T22:12:12.580Z,8.75
2022-08-07T22:16:43.304Z,7.53
2022-08-07T22:18:55.968Z,9.18
2022-08-07T22:22:29.153Z,9.02
2022-08-07T22:25:42.250Z,7.82
2022-08-07T22:28:53.126Z,7.68
2022-08-07T22:32:05.883Z,8.40
2022-08-07T22:35:11.202Z,13.82
2022-08-07T22:38:29.623Z,7.22
2022-08-07T22:42:03.118Z,8.52
2022-08-07T22:45:10.910Z,9.85
2022-08-07T22:48:55.493Z,8.75
2022-08-07T22:52:37.555Z,7.72
2022-08-07T22:55:52.855Z,7.50
2022-08-07T22:59:41.544Z,8.77
2022-08-07T23:03:21.538Z,7.95
2022-08-07T23:06:43.713Z,8.10
2022-08-07T23:10:37.326Z,7.95
2022-08-07T23:13:48.912Z,9.18
2022-08-07T23:17:36.955Z,7.80
2022-08-07T23:21:05.725Z,8.98
2022-08-07T23:24:29.603Z,12.48
2022-08-07T23:28:22.013Z,9.02
2022-08-07T23:34:22.320Z,8.43
2022-08-07T23:35:16.761Z,8.48
2022-08-07T23:38:36.209Z,8.52
2022-08-07T23:42:04.247Z,8.35
2022-08-07T23:45:33.132Z,10.95
2022-08-07T23:49:16.676Z,8.68
2022-08-07T23:53:11.785Z,12.43
2022-08-07T23:56:04.064Z,9.50
